EKVG Airport Information

Runway Information
Runway 13 Length 5902 ft width 98 ft
Elevation 268 ft Threshold 0 ft Heading 118
Runway 31 Length 5902 ft Width 98 ft
Elevation 252 ft Threshold 0 ft Heading 298
Airport Frequencies
Type AFIS Name AFIS Frequency 124.85 MHZ
Airport Navaids
Type NDB Name Myggenes Frequency 337 KHZ
Type NDB Name Nolso Frequency 404 KHZ
Type NDB Name Vagar Frequency 348 KHZ
Airport Weather Information & NOTAM
ADDS - METARS form results

(2221 UTC 22 January 2020)
Data provider http://aviationweather.gov/metar/data/
 
METAR text: EKVG 222220Z AUTO 24011G23KT 190V280 3100 BR OVC001/// 08/08 Q1016
Conditions at: EKVG (SORVAAG/VAGAR , DK) observed 2220 UTC 22 January 2020
Temperature: 8.0°C (46°F)
Dewpoint: 8.0°C (46°F) [RH = 100%]
Pressure (altimeter): 30.00 inches Hg (1016.0 mb)
Winds: from the WSW (240 degrees) at 13 MPH (11 knots; 5.7 m/s)
gusting to 26 MPH (23 knots; 11.8 m/s)
Visibility: 1.93 miles (3.11 km)
Ceiling: 100 feet AGL
Clouds: overcast cloud deck at 100 feet AGL
Weather: BR  (mist)

METAR text: EKVG 222150Z AUTO 25008KT 170V340 2100 -RA BR OVC002/// 08/08 Q1016
Conditions at: EKVG (SORVAAG/VAGAR , DK) observed 2150 UTC 22 January 2020
Temperature: 8.0°C (46°F)
Dewpoint: 8.0°C (46°F) [RH = 100%]
Pressure (altimeter): 30.00 inches Hg (1016.0 mb)
Winds: from the WSW (250 degrees) at 9 MPH (8 knots; 4.1 m/s)
Visibility: 1.30 miles (2.09 km)
Ceiling: 200 feet AGL
Clouds: overcast cloud deck at 200 feet AGL
Weather: -RA BR  (light rain, mist)

Forecast for: EKVG (SORVAAG/VAGAR , DK)
Text: TAF EKVG 221422Z 2215/2221 24020KT 8000 BR OVC004
Forecast period: 1500 to 1900 UTC 22 January 2020
Forecast type: FROM: standard forecast or significant change
Winds: from the WSW (240 degrees) at 23 MPH (20 knots; 10.3 m/s)
Visibility: 5 miles (8 km)
Ceiling: 400 feet AGL
Clouds: overcast cloud deck at 400 feet AGL
Weather: BR  (mist)
Text: TEMPO 2215/2221 2000 DZ BR OVC002
Forecast period: 1500 to 2100 UTC 22 January 2020
Forecast type: TEMPORARY: The following changes expected for less than half the time period
Visibility: 1.24 miles (2.00 km)
Ceiling: 200 feet AGL
Clouds: overcast cloud deck at 200 feet AGL
Weather: DZ BR  (moderate drizzle, mist)
Text: BECMG 2219/2221 23022G35KT
Forecast period: 1900 to 2100 UTC 22 January 2020
Forecast type: BECOMING: Conditions expected to become as follows by 2100 UTC 22 January 2020
Winds: from the SW (230 degrees) at 25 MPH (22 knots; 11.3 m/s)
gusting to 40 MPH (35 knots; 18.0 m/s)
Visibility: 5 miles (8 km)
Ceiling: 400 feet AGL
Clouds: overcast cloud deck at 400 feet AGL
Weather: BR  (mist)